Time,TemperatureF,DewpointF,PressureIn,WindDirection,WindDirectionDegrees,WindSpeedMPH,WindSpeedGustMPH,Humidity,HourlyPrecipIn,Conditions,Clouds,dailyrainin,SoftwareType,DateUTC
2013-04-07 00:01:00,42.7,33.2,30.04,ESE,118,0.0,0.0,69,0.00,,,0.00,Wunderground v.1.15,2013-04-07 04:01:00,
2013-04-07 00:02:00,42.7,33.6,30.04,ESE,118,0.0,0.0,70,0.00,,,0.00,Wunderground v.1.15,2013-04-07 04:02:00,
2013-04-07 00:03:00,42.8,33.7,30.04,ESE,118,0.0,0.0,70,0.00,,,0.00,Wunderground v.1.15,2013-04-07 04:03:00,
2013-04-07 00:08:00,42.9,33.4,30.04,ESE,118,0.0,0.0,69,0.00,,,0.00,Wunderground v.1.15,2013-04-07 04:08:00,
2013-04-07 00:13:00,43.5,33.6,30.04,ESE,118,0.0,0.0,68,0.00,,,0.00,Wunderground v.1.15,2013-04-07 04:13:00,
2013-04-07 00:18:00,43.8,33.9,30.05,ESE,118,0.0,0.0,68,0.00,,,0.00,Wunderground v.1.15,2013-04-07 04:18:00,
2013-04-07 00:23:00,44.0,34.8,30.05,ESE,118,0.0,0.0,70,0.00,,,0.00,Wunderground v.1.15,2013-04-07 04:23:00,
2013-04-07 00:29:00,43.9,34.0,30.05,ESE,118,0.0,0.0,68,0.00,,,0.00,Wunderground v.1.15,2013-04-07 04:29:00,
2013-04-07 00:34:00,44.1,33.1,30.05,ESE,118,0.0,0.0,65,0.00,,,0.00,Wunderground v.1.15,2013-04-07 04:34:00,
2013-04-07 00:40:00,44.4,34.1,30.05,ESE,118,0.0,0.0,67,0.00,,,0.00,Wunderground v.1.15,2013-04-07 04:40:00,
2013-04-07 00:46:00,44.6,33.9,30.04,ESE,118,0.0,0.0,66,0.00,,,0.00,Wunderground v.1.15,2013-04-07 04:46:00,
2013-04-07 00:52:00,45.0,34.3,30.04,ESE,118,0.0,0.0,66,0.00,,,0.00,Wunderground v.1.15,2013-04-07 04:52:00,
2013-04-07 00:57:00,45.1,33.6,30.04,ESE,118,0.0,0.0,64,0.00,,,0.00,Wunderground v.1.15,2013-04-07 04:57:00,
2013-04-07 01:03:00,45.3,33.8,30.04,ESE,118,0.0,1.0,64,0.00,,,0.00,Wunderground v.1.15,2013-04-07 05:03:00,
2013-04-07 01:09:00,45.5,34.0,30.04,ESE,122,0.0,1.0,64,0.00,,,0.00,Wunderground v.1.15,2013-04-07 05:09:00,
2013-04-07 01:15:00,45.7,33.4,30.03,SE,140,1.0,2.0,62,0.00,,,0.00,Wunderground v.1.15,2013-04-07 05:15:00,
2013-04-07 01:20:00,45.9,34.0,30.03,SE,134,1.0,2.0,63,0.00,,,0.00,Wunderground v.1.15,2013-04-07 05:20:00,
2013-04-07 01:25:00,46.8,33.6,30.03,SSE,166,1.0,2.0,60,0.00,,,0.00,Wunderground v.1.15,2013-04-07 05:25:00,
2013-04-07 01:30:00,47.8,34.2,30.03,SE,146,2.0,2.0,59,0.00,,,0.00,Wunderground v.1.15,2013-04-07 05:30:00,
2013-04-07 01:36:00,48.7,34.1,30.03,SSE,149,2.0,6.0,57,0.00,,,0.00,Wunderground v.1.15,2013-04-07 05:36:00,
2013-04-07 01:41:00,49.2,34.6,30.03,South,171,2.0,3.0,57,0.00,,,0.00,Wunderground v.1.15,2013-04-07 05:41:00,
2013-04-07 01:47:00,50.2,35.1,30.03,SSE,167,2.0,3.0,56,0.00,,,0.00,Wunderground v.1.15,2013-04-07 05:47:00,
2013-04-07 01:52:00,51.4,35.3,30.03,South,172,2.0,2.0,54,0.00,,,0.00,Wunderground v.1.15,2013-04-07 05:52:00,
2013-04-07 01:58:00,52.6,35.9,30.03,South,182,3.0,4.0,53,0.00,,,0.00,Wunderground v.1.15,2013-04-07 05:58:00,
2013-04-07 02:03:00,53.5,36.3,30.03,SSE,161,4.0,12.0,52,0.00,,,0.00,Wunderground v.1.15,2013-04-07 06:03:00,
2013-04-07 02:08:00,54.4,36.1,30.03,ESE,105,4.0,12.0,50,0.00,,,0.00,Wunderground v.1.15,2013-04-07 06:08:00,
2013-04-07 02:14:00,55.0,36.2,30.03,South,182,3.0,7.0,49,0.00,,,0.00,Wunderground v.1.15,2013-04-07 06:14:00,
2013-04-07 02:19:00,55.4,36.5,30.03,SSE,152,3.0,7.0,49,0.00,,,0.00,Wunderground v.1.15,2013-04-07 06:19:00,
2013-04-07 02:25:00,55.8,36.4,30.03,SE,132,4.0,8.0,48,0.00,,,0.00,Wunderground v.1.15,2013-04-07 06:25:00,
2013-04-07 02:31:00,55.9,37.0,30.03,SE,145,3.0,5.0,49,0.00,,,0.00,Wunderground v.1.15,2013-04-07 06:31:00,
2013-04-07 02:36:00,56.0,36.6,30.02,SSE,153,4.0,6.0,48,0.00,,,0.00,Wunderground v.1.15,2013-04-07 06:36:00,
2013-04-07 02:42:00,56.1,36.7,30.02,SSE,157,4.0,6.0,48,0.00,,,0.00,Wunderground v.1.15,2013-04-07 06:42:00,
2013-04-07 02:48:00,56.1,37.2,30.02,SSE,153,4.0,11.0,49,0.00,,,0.00,Wunderground v.1.15,2013-04-07 06:48:00,
2013-04-07 02:54:00,56.0,37.1,30.02,SE,128,4.0,6.0,49,0.00,,,0.00,Wunderground v.1.15,2013-04-07 06:54:00,
2013-04-07 02:59:00,56.0,37.1,30.02,SSE,165,3.0,10.0,49,0.00,,,0.00,Wunderground v.1.15,2013-04-07 06:59:00,
2013-04-07 03:05:00,56.0,37.1,30.01,SE,136,4.0,16.0,49,0.00,,,0.00,Wunderground v.1.15,2013-04-07 07:05:00,
2013-04-07 03:11:00,56.0,37.1,30.01,South,171,4.0,16.0,49,0.00,,,0.00,Wunderground v.1.15,2013-04-07 07:11:00,
2013-04-07 03:16:00,56.0,37.1,30.01,SSE,165,4.0,16.0,49,0.00,,,0.00,Wunderground v.1.15,2013-04-07 07:16:00,
2013-04-07 03:22:00,56.0,37.1,30.00,SE,137,4.0,16.0,49,0.00,,,0.00,Wunderground v.1.15,2013-04-07 07:22:00,
2013-04-07 03:27:00,56.0,37.1,30.00,SE,146,5.0,16.0,49,0.00,,,0.00,Wunderground v.1.15,2013-04-07 07:27:00,
2013-04-07 03:33:00,56.0,37.6,30.00,SSE,168,4.0,16.0,50,0.00,,,0.00,Wunderground v.1.15,2013-04-07 07:33:00,
2013-04-07 03:38:00,55.9,37.0,30.00,SSE,161,4.0,16.0,49,0.00,,,0.00,Wunderground v.1.15,2013-04-07 07:38:00,
2013-04-07 03:43:00,55.9,37.0,30.00,SSE,164,5.0,16.0,49,0.00,,,0.00,Wunderground v.1.15,2013-04-07 07:43:00,
2013-04-07 03:49:00,55.9,37.0,30.00,SSW,211,5.0,16.0,49,0.00,,,0.00,Wunderground v.1.15,2013-04-07 07:49:00,
2013-04-07 03:55:00,55.9,37.0,30.00,SE,140,6.0,16.0,49,0.00,,,0.00,Wunderground v.1.15,2013-04-07 07:55:00,
2013-04-07 04:00:00,55.9,37.0,30.00,SSE,159,5.0,5.0,49,0.00,,,0.00,Wunderground v.1.15,2013-04-07 08:00:00,
2013-04-07 04:06:00,55.8,36.9,30.00,South,176,6.0,13.0,49,0.00,,,0.00,Wunderground v.1.15,2013-04-07 08:06:00,
2013-04-07 04:11:00,55.7,36.8,29.99,SE,140,5.0,13.0,49,0.00,,,0.00,Wunderground v.1.15,2013-04-07 08:11:00,
2013-04-07 04:17:00,55.7,36.8,29.99,SSW,194,4.0,13.0,49,0.00,,,0.00,Wunderground v.1.15,2013-04-07 08:17:00,
2013-04-07 04:22:00,55.6,36.7,30.00,SSW,192,4.0,13.0,49,0.00,,,0.00,Wunderground v.1.15,2013-04-07 08:22:00,
2013-04-07 04:27:00,55.6,36.7,30.00,SSE,153,4.0,13.0,49,0.00,,,0.00,Wunderground v.1.15,2013-04-07 08:27:00,
2013-04-07 04:33:00,55.7,36.8,30.00,South,188,5.0,13.0,49,0.00,,,0.00,Wunderground v.1.15,2013-04-07 08:33:00,
2013-04-07 04:38:00,55.7,36.8,29.99,SE,125,5.0,13.0,49,0.00,,,0.00,Wunderground v.1.15,2013-04-07 08:38:00,
2013-04-07 04:44:00,55.6,36.7,29.99,SSE,160,4.0,13.0,49,0.00,,,0.00,Wunderground v.1.15,2013-04-07 08:44:00,
2013-04-07 04:49:00,55.5,36.6,29.99,SSE,160,4.0,13.0,49,0.00,,,0.00,Wunderground v.1.15,2013-04-07 08:49:00,
2013-04-07 04:55:00,55.5,36.6,30.00,SE,140,3.0,13.0,49,0.00,,,0.00,Wunderground v.1.15,2013-04-07 08:55:00,
2013-04-07 05:00:00,55.4,36.5,30.00,SSE,157,3.0,3.0,49,0.00,,,0.00,Wunderground v.1.15,2013-04-07 09:00:00,
2013-04-07 05:06:00,55.4,36.5,29.99,ESE,123,3.0,12.0,49,0.00,,,0.00,Wunderground v.1.15,2013-04-07 09:06:00,
2013-04-07 05:12:00,55.3,37.0,29.99,South,172,3.0,12.0,50,0.00,,,0.00,Wunderground v.1.15,2013-04-07 09:12:00,
2013-04-07 05:17:00,55.1,36.8,29.99,SSE,158,3.0,12.0,50,0.00,,,0.00,Wunderground v.1.15,2013-04-07 09:17:00,
2013-04-07 05:23:00,55.1,36.8,29.99,SSE,153,4.0,12.0,50,0.00,,,0.00,Wunderground v.1.15,2013-04-07 09:23:00,
2013-04-07 05:29:00,55.1,37.3,29.99,SE,133,4.0,12.0,51,0.00,,,0.00,Wunderground v.1.15,2013-04-07 09:29:00,
2013-04-07 05:34:00,55.0,36.7,29.98,SE,143,4.0,12.0,50,0.00,,,0.00,Wunderground v.1.15,2013-04-07 09:34:00,
2013-04-07 05:39:00,55.0,36.7,29.98,SSE,159,4.0,12.0,50,0.00,,,0.00,Wunderground v.1.15,2013-04-07 09:39:00,
2013-04-07 05:44:00,55.1,36.8,29.98,SSE,155,3.0,12.0,50,0.00,,,0.00,Wunderground v.1.15,2013-04-07 09:44:00,
2013-04-07 05:49:00,55.1,36.8,29.98,SE,126,4.0,12.0,50,0.00,,,0.00,Wunderground v.1.15,2013-04-07 09:49:00,
2013-04-07 05:55:00,55.2,36.4,29.98,SSE,157,5.0,12.0,49,0.00,,,0.00,Wunderground v.1.15,2013-04-07 09:55:00,
2013-04-07 06:00:00,55.3,37.0,29.98,ESE,113,4.0,4.0,50,0.00,,,0.00,Wunderground v.1.15,2013-04-07 10:00:00,
2013-04-07 06:07:00,55.3,37.0,29.98,South,173,3.0,10.0,50,0.00,,,0.00,Wunderground v.1.15,2013-04-07 10:07:00,
2013-04-07 06:13:00,55.4,36.5,29.98,ESE,111,4.0,10.0,49,0.00,,,0.00,Wunderground v.1.15,2013-04-07 10:13:00,
2013-04-07 06:19:00,55.3,37.0,29.98,South,187,3.0,10.0,50,0.00,,,0.00,Wunderground v.1.15,2013-04-07 10:19:00,
2013-04-07 06:24:00,55.3,36.5,29.98,SE,129,4.0,10.0,49,0.00,,,0.00,Wunderground v.1.15,2013-04-07 10:24:00,
2013-04-07 06:30:00,55.2,36.9,29.98,SE,138,5.0,5.0,50,0.00,,,0.00,Wunderground v.1.15,2013-04-07 10:30:00,
2013-04-07 06:36:00,55.3,36.5,29.98,SSE,159,4.0,10.0,49,0.00,,,0.00,Wunderground v.1.15,2013-04-07 10:36:00,
2013-04-07 06:41:00,55.4,37.1,29.98,SE,134,4.0,10.0,50,0.00,,,0.00,Wunderground v.1.15,2013-04-07 10:41:00,
2013-04-07 06:46:00,55.2,37.4,29.98,SSE,152,2.0,10.0,51,0.00,,,0.00,Wunderground v.1.15,2013-04-07 10:46:00,
2013-04-07 06:51:00,55.0,36.7,29.98,SSE,153,3.0,10.0,50,0.00,,,0.00,Wunderground v.1.15,2013-04-07 10:51:00,
2013-04-07 06:57:00,54.9,36.6,29.98,East,99,3.0,10.0,50,0.00,,,0.00,Wunderground v.1.15,2013-04-07 10:57:00,
2013-04-07 07:02:00,54.9,37.1,29.98,South,182,4.0,13.0,51,0.00,,,0.00,Wunderground v.1.15,2013-04-07 11:02:00,
2013-04-07 07:08:00,54.9,37.1,29.98,SSE,165,4.0,13.0,51,0.00,,,0.00,Wunderground v.1.15,2013-04-07 11:08:00,
2013-04-07 07:13:00,54.9,37.1,29.97,SSE,155,3.0,13.0,51,0.00,,,0.00,Wunderground v.1.15,2013-04-07 11:13:00,
2013-04-07 07:18:00,54.9,37.1,29.98,SE,141,4.0,13.0,51,0.00,,,0.00,Wunderground v.1.15,2013-04-07 11:18:00,
2013-04-07 07:23:00,54.9,37.1,29.98,SE,133,4.0,13.0,51,0.00,,,0.00,Wunderground v.1.15,2013-04-07 11:23:00,
2013-04-07 07:29:00,54.9,37.1,29.98,SE,134,4.0,13.0,51,0.00,,,0.00,Wunderground v.1.15,2013-04-07 11:29:00,
2013-04-07 07:34:00,55.1,37.3,29.98,SSE,155,5.0,13.0,51,0.00,,,0.00,Wunderground v.1.15,2013-04-07 11:34:00,
2013-04-07 07:39:00,55.1,37.3,29.98,South,191,4.0,13.0,51,0.00,,,0.00,Wunderground v.1.15,2013-04-07 11:39:00,
2013-04-07 07:44:00,55.4,37.6,29.98,SE,140,4.0,13.0,51,0.00,,,0.00,Wunderground v.1.15,2013-04-07 11:44:00,
2013-04-07 07:49:00,55.7,37.3,29.97,SSE,161,5.0,13.0,50,0.00,,,0.00,Wunderground v.1.15,2013-04-07 11:49:00,
2013-04-07 07:56:00,55.9,37.5,29.98,SSE,157,6.0,13.0,50,0.00,,,0.00,Wunderground v.1.15,2013-04-07 11:56:00,
2013-04-07 08:01:00,56.0,37.6,29.98,SE,127,5.0,10.0,50,0.00,,,0.00,Wunderground v.1.15,2013-04-07 12:01:00,
2013-04-07 08:06:00,56.2,37.8,29.98,SE,144,5.0,10.0,50,0.00,,,0.00,Wunderground v.1.15,2013-04-07 12:06:00,
2013-04-07 08:12:00,56.4,38.0,29.98,SSE,148,4.0,10.0,50,0.00,,,0.00,Wunderground v.1.15,2013-04-07 12:12:00,
2013-04-07 08:17:00,56.7,37.7,29.98,South,190,5.0,10.0,49,0.00,,,0.00,Wunderground v.1.15,2013-04-07 12:17:00,
2013-04-07 08:22:00,56.9,38.4,29.98,SE,128,5.0,10.0,50,0.00,,,0.00,Wunderground v.1.15,2013-04-07 12:22:00,
2013-04-07 08:27:00,57.1,38.6,29.98,South,169,5.0,10.0,50,0.00,,,0.00,Wunderground v.1.15,2013-04-07 12:27:00,
2013-04-07 08:33:00,57.5,38.5,29.97,SE,130,5.0,10.0,49,0.00,,,0.00,Wunderground v.1.15,2013-04-07 12:33:00,
2013-04-07 08:38:00,57.8,38.8,29.98,SSE,165,5.0,10.0,49,0.00,,,0.00,Wunderground v.1.15,2013-04-07 12:38:00,
2013-04-07 08:43:00,58.3,39.2,29.98,SE,142,5.0,10.0,49,0.00,,,0.00,Wunderground v.1.15,2013-04-07 12:43:00,
2013-04-07 08:49:00,59.0,39.3,29.97,SSE,157,5.0,12.0,48,0.00,,,0.00,Wunderground v.1.15,2013-04-07 12:49:00,
2013-04-07 08:54:00,59.0,39.3,29.97,ESE,117,6.0,10.0,48,0.00,,,0.00,Wunderground v.1.15,2013-04-07 12:54:00,
2013-04-07 09:00:00,59.7,40.0,29.97,SSE,161,5.0,11.0,48,0.00,,,0.00,Wunderground v.1.15,2013-04-07 13:00:00,
2013-04-07 09:05:00,60.2,40.4,29.97,SE,129,4.0,11.0,48,0.00,,,0.00,Wunderground v.1.15,2013-04-07 13:05:00,
2013-04-07 09:11:00,60.5,40.2,29.97,SSE,148,4.0,7.0,47,0.00,,,0.00,Wunderground v.1.15,2013-04-07 13:11:00,
2013-04-07 09:16:00,60.7,40.3,29.96,SSW,198,6.0,15.0,47,0.00,,,0.00,Wunderground v.1.15,2013-04-07 13:16:00,
2013-04-07 09:21:00,60.9,40.5,29.96,South,189,7.0,11.0,47,0.00,,,0.00,Wunderground v.1.15,2013-04-07 13:21:00,
2013-04-07 09:27:00,61.1,40.7,29.96,SE,133,6.0,12.0,47,0.00,,,0.00,Wunderground v.1.15,2013-04-07 13:27:00,
2013-04-07 09:33:00,61.2,40.8,29.96,SE,138,7.0,11.0,47,0.00,,,0.00,Wunderground v.1.15,2013-04-07 13:33:00,
2013-04-07 09:39:00,61.5,41.1,29.96,South,174,7.0,11.0,47,0.00,,,0.00,Wunderground v.1.15,2013-04-07 13:39:00,
2013-04-07 09:45:00,62.2,41.7,29.96,SSW,192,5.0,11.0,47,0.00,,,0.00,Wunderground v.1.15,2013-04-07 13:45:00,
2013-04-07 09:51:00,62.3,41.8,29.95,SSW,205,5.0,11.0,47,0.00,,,0.00,Wunderground v.1.15,2013-04-07 13:51:00,
2013-04-07 09:57:00,62.6,42.1,29.95,ESE,122,6.0,11.0,47,0.00,,,0.00,Wunderground v.1.15,2013-04-07 13:57:00,
2013-04-07 10:03:00,62.9,42.4,29.95,SSE,163,5.0,20.0,47,0.00,,,0.00,Wunderground v.1.15,2013-04-07 14:03:00,
2013-04-07 10:08:00,62.9,41.8,29.95,WNW,302,6.0,20.0,46,0.00,,,0.00,Wunderground v.1.15,2013-04-07 14:08:00,
2013-04-07 10:13:00,63.2,42.6,29.95,ESE,116,5.0,20.0,47,0.00,,,0.00,Wunderground v.1.15,2013-04-07 14:13:00,
2013-04-07 10:19:00,63.5,42.3,29.95,SE,141,3.0,20.0,46,0.00,,,0.00,Wunderground v.1.15,2013-04-07 14:19:00,
2013-04-07 10:24:00,63.6,42.4,29.95,ESE,105,4.0,20.0,46,0.00,,,0.00,Wunderground v.1.15,2013-04-07 14:24:00,
2013-04-07 10:30:00,63.8,43.2,29.95,ESE,122,7.0,7.0,47,0.00,,,0.00,Wunderground v.1.15,2013-04-07 14:30:00,
2013-04-07 10:36:00,64.0,43.4,29.95,ESE,119,5.0,20.0,47,0.00,,,0.00,Wunderground v.1.15,2013-04-07 14:36:00,
2013-04-07 10:41:00,64.2,43.5,29.95,SE,126,5.0,20.0,47,0.00,,,0.00,Wunderground v.1.15,2013-04-07 14:41:00,
2013-04-07 10:46:00,64.8,43.5,29.95,SSE,161,5.0,20.0,46,0.00,,,0.00,Wunderground v.1.15,2013-04-07 14:46:00,
2013-04-07 10:52:00,65.1,43.8,29.95,SSE,158,6.0,20.0,46,0.00,,,0.00,Wunderground v.1.15,2013-04-07 14:52:00,
2013-04-07 10:58:00,65.6,44.3,29.95,SSE,167,5.0,20.0,46,0.00,,,0.00,Wunderground v.1.15,2013-04-07 14:58:00,
2013-04-07 11:03:00,65.9,44.5,29.95,SE,142,4.0,23.0,46,0.00,,,0.00,Wunderground v.1.15,2013-04-07 15:03:00,
2013-04-07 11:09:00,66.2,44.8,29.95,West,274,5.0,23.0,46,0.00,,,0.00,Wunderground v.1.15,2013-04-07 15:09:00,
2013-04-07 11:14:00,66.3,44.9,29.95,South,174,6.0,23.0,46,0.00,,,0.00,Wunderground v.1.15,2013-04-07 15:14:00,
2013-04-07 11:20:00,66.6,44.6,29.95,WSW,250,6.0,6.0,45,0.00,,,0.00,Wunderground v.1.15,2013-04-07 15:20:00,
2013-04-07 11:25:00,66.3,44.9,29.95,East,94,5.0,23.0,46,0.00,,,0.00,Wunderground v.1.15,2013-04-07 15:25:00,
2013-04-07 11:31:00,66.3,44.9,29.94,ESE,121,4.0,23.0,46,0.00,,,0.00,Wunderground v.1.15,2013-04-07 15:31:00,
2013-04-07 11:36:00,66.9,44.9,29.94,SSW,195,3.0,23.0,45,0.00,,,0.00,Wunderground v.1.15,2013-04-07 15:36:00,
2013-04-07 11:41:00,67.4,45.9,29.94,South,175,3.0,9.0,46,0.00,,,0.00,Wunderground v.1.15,2013-04-07 15:41:00,
2013-04-07 11:46:00,67.5,46.0,29.94,North,360,4.0,23.0,46,0.00,,,0.00,Wunderground v.1.15,2013-04-07 15:46:00,
2013-04-07 11:52:00,67.4,45.9,29.94,South,171,3.0,23.0,46,0.00,,,0.00,Wunderground v.1.15,2013-04-07 15:52:00,
2013-04-07 11:58:00,66.9,45.4,29.94,NW,321,4.0,23.0,46,0.00,,,0.00,Wunderground v.1.15,2013-04-07 15:58:00,
2013-04-07 12:03:00,66.7,45.3,29.94,East,90,5.0,23.0,46,0.00,,,0.00,Wunderground v.1.15,2013-04-07 16:03:00,
2013-04-07 12:08:00,66.8,45.9,29.93,SE,138,6.0,23.0,47,0.00,,,0.00,Wunderground v.1.15,2013-04-07 16:08:00,
2013-04-07 12:13:00,67.7,46.2,29.93,ENE,72,5.0,23.0,46,0.00,,,0.00,Wunderground v.1.15,2013-04-07 16:13:00,
2013-04-07 12:18:00,68.2,46.0,29.93,SW,215,5.0,23.0,45,0.00,,,0.00,Wunderground v.1.15,2013-04-07 16:18:00,
2013-04-07 12:23:00,67.9,45.8,29.93,SSW,200,5.0,23.0,45,0.00,,,0.00,Wunderground v.1.15,2013-04-07 16:23:00,
2013-04-07 12:28:00,68.0,45.9,29.93,SW,221,4.0,23.0,45,0.00,,,0.00,Wunderground v.1.15,2013-04-07 16:28:00,
2013-04-07 12:34:00,67.9,46.3,29.93,South,191,5.0,23.0,46,0.00,,,0.00,Wunderground v.1.15,2013-04-07 16:34:00,
2013-04-07 12:40:00,67.8,46.3,29.92,SW,225,6.0,6.0,46,0.00,,,0.00,Wunderground v.1.15,2013-04-07 16:40:00,
2013-04-07 12:45:00,67.9,46.3,29.92,South,176,6.0,23.0,46,0.00,,,0.00,Wunderground v.1.15,2013-04-07 16:45:00,
2013-04-07 12:50:00,68.0,47.6,29.92,SE,142,5.0,23.0,48,0.00,,,0.00,Wunderground v.1.15,2013-04-07 16:50:00,
2013-04-07 12:56:00,68.1,47.1,29.92,NNW,340,5.0,23.0,47,0.00,,,0.00,Wunderground v.1.15,2013-04-07 16:56:00,
2013-04-07 13:02:00,68.8,47.2,29.92,SSE,164,6.0,17.0,46,0.00,,,0.00,Wunderground v.1.15,2013-04-07 17:02:00,
2013-04-07 13:07:00,69.0,47.4,29.91,West,259,7.0,20.0,46,0.00,,,0.00,Wunderground v.1.15,2013-04-07 17:07:00,
2013-04-07 13:13:00,69.6,47.9,29.92,NW,325,8.0,17.0,46,0.00,,,0.00,Wunderground v.1.15,2013-04-07 17:13:00,
2013-04-07 13:19:00,69.7,48.0,29.92,South,174,8.0,17.0,46,0.00,,,0.00,Wunderground v.1.15,2013-04-07 17:19:00,
2013-04-07 13:24:00,70.1,48.9,29.92,SSE,161,6.0,17.0,47,0.00,,,0.00,Wunderground v.1.15,2013-04-07 17:24:00,
2013-04-07 13:29:00,69.4,48.3,29.92,SW,231,5.0,17.0,47,0.00,,,0.00,Wunderground v.1.15,2013-04-07 17:29:00,
2013-04-07 13:34:00,69.4,48.3,29.91,SSE,159,6.0,17.0,47,0.00,,,0.00,Wunderground v.1.15,2013-04-07 17:34:00,
2013-04-07 13:40:00,69.4,48.9,29.91,NNW,333,4.0,4.0,48,0.00,,,0.00,Wunderground v.1.15,2013-04-07 17:40:00,
2013-04-07 13:46:00,69.6,49.0,29.91,SW,214,3.0,17.0,48,0.00,,,0.00,Wunderground v.1.15,2013-04-07 17:46:00,
2013-04-07 13:51:00,69.6,48.5,29.91,SE,144,5.0,7.0,47,0.00,,,0.00,Wunderground v.1.15,2013-04-07 17:51:00,
2013-04-07 13:57:00,69.8,48.7,29.90,East,90,5.0,17.0,47,0.00,,,0.00,Wunderground v.1.15,2013-04-07 17:57:00,
2013-04-07 14:02:00,70.2,49.6,29.90,ESE,120,4.0,23.0,48,0.00,,,0.00,Wunderground v.1.15,2013-04-07 18:02:00,
2013-04-07 14:07:00,70.1,48.9,29.90,SSW,195,5.0,23.0,47,0.00,,,0.00,Wunderground v.1.15,2013-04-07 18:07:00,
2013-04-07 14:13:00,70.5,49.3,29.90,SW,224,6.0,23.0,47,0.00,,,0.00,Wunderground v.1.15,2013-04-07 18:13:00,
2013-04-07 14:19:00,71.0,49.2,29.90,SSW,192,8.0,23.0,46,0.00,,,0.00,Wunderground v.1.15,2013-04-07 18:19:00,
2013-04-07 14:25:00,71.3,49.4,29.90,SSW,213,8.0,23.0,46,0.00,,,0.00,Wunderground v.1.15,2013-04-07 18:25:00,
2013-04-07 14:30:00,71.4,49.5,29.89,South,176,7.0,23.0,46,0.00,,,0.00,Wunderground v.1.15,2013-04-07 18:30:00,
2013-04-07 14:35:00,71.7,50.4,29.89,South,187,8.0,23.0,47,0.00,,,0.00,Wunderground v.1.15,2013-04-07 18:35:00,
2013-04-07 14:41:00,71.5,49.6,29.89,SE,137,5.0,14.0,46,0.00,,,0.00,Wunderground v.1.15,2013-04-07 18:41:00,
2013-04-07 14:46:00,71.1,49.3,29.89,NNW,333,7.0,23.0,46,0.00,,,0.00,Wunderground v.1.15,2013-04-07 18:46:00,
2013-04-07 14:52:00,70.4,49.2,29.89,ENE,68,7.0,23.0,47,0.00,,,0.00,Wunderground v.1.15,2013-04-07 18:52:00,
2013-04-07 14:57:00,70.3,49.1,29.89,SW,223,5.0,23.0,47,0.00,,,0.00,Wunderground v.1.15,2013-04-07 18:57:00,
2013-04-07 15:03:00,70.5,49.3,29.89,NNW,337,5.0,21.0,47,0.00,,,0.00,Wunderground v.1.15,2013-04-07 19:03:00,
2013-04-07 15:08:00,70.6,50.0,29.89,South,173,5.0,21.0,48,0.00,,,0.00,Wunderground v.1.15,2013-04-07 19:08:00,
2013-04-07 15:14:00,70.6,50.5,29.89,East,98,4.0,21.0,49,0.00,,,0.00,Wunderground v.1.15,2013-04-07 19:14:00,
2013-04-07 15:19:00,70.5,49.9,29.89,East,98,3.0,21.0,48,0.00,,,0.00,Wunderground v.1.15,2013-04-07 19:19:00,
2013-04-07 15:25:00,70.6,50.0,29.89,SE,132,4.0,21.0,48,0.00,,,0.00,Wunderground v.1.15,2013-04-07 19:25:00,
2013-04-07 15:31:00,71.0,50.3,29.89,South,176,5.0,21.0,48,0.00,,,0.00,Wunderground v.1.15,2013-04-07 19:31:00,
2013-04-07 15:36:00,71.1,49.8,29.89,SW,229,5.0,21.0,47,0.00,,,0.00,Wunderground v.1.15,2013-04-07 19:36:00,
2013-04-07 15:41:00,71.2,50.5,29.89,SE,133,4.0,21.0,48,0.00,,,0.00,Wunderground v.1.15,2013-04-07 19:41:00,
2013-04-07 15:47:00,71.0,49.7,29.89,NE,55,4.0,21.0,47,0.00,,,0.00,Wunderground v.1.15,2013-04-07 19:47:00,
2013-04-07 15:52:00,70.9,50.2,29.89,SSE,163,4.0,21.0,48,0.00,,,0.00,Wunderground v.1.15,2013-04-07 19:52:00,
2013-04-07 15:58:00,71.0,50.3,29.89,SW,229,3.0,21.0,48,0.00,,,0.00,Wunderground v.1.15,2013-04-07 19:58:00,
2013-04-07 16:04:00,71.2,49.9,29.89,SSW,207,4.0,20.0,47,0.00,,,0.00,Wunderground v.1.15,2013-04-07 20:04:00,
2013-04-07 16:09:00,70.9,50.2,29.89,NNE,12,6.0,20.0,48,0.00,,,0.00,Wunderground v.1.15,2013-04-07 20:09:00,
2013-04-07 16:15:00,70.8,49.6,29.89,ENE,71,5.0,20.0,47,0.00,,,0.00,Wunderground v.1.15,2013-04-07 20:15:00,
2013-04-07 16:20:00,71.0,50.3,29.90,ENE,73,4.0,20.0,48,0.00,,,0.00,Wunderground v.1.15,2013-04-07 20:20:00,
2013-04-07 16:26:00,70.8,50.1,29.89,East,89,6.0,20.0,48,0.00,,,0.00,Wunderground v.1.15,2013-04-07 20:26:00,
2013-04-07 16:31:00,70.7,50.6,29.89,SE,140,6.0,6.0,49,0.00,,,0.00,Wunderground v.1.15,2013-04-07 20:31:00,
2013-04-07 16:37:00,70.7,50.0,29.89,SE,143,4.0,20.0,48,0.00,,,0.00,Wunderground v.1.15,2013-04-07 20:37:00,
2013-04-07 16:43:00,70.7,50.0,29.90,SE,140,4.0,20.0,48,0.00,,,0.00,Wunderground v.1.15,2013-04-07 20:43:00,
2013-04-07 16:48:00,70.4,50.9,29.90,NW,318,4.0,20.0,50,0.00,,,0.00,Wunderground v.1.15,2013-04-07 20:48:00,
2013-04-07 16:56:00,70.2,50.1,29.90,North,10,3.0,20.0,49,0.00,,,0.00,Wunderground v.1.15,2013-04-07 20:56:00,
2013-04-07 17:01:00,70.1,50.0,29.90,South,189,4.0,16.0,49,0.00,,,0.00,Wunderground v.1.15,2013-04-07 21:01:00,
2013-04-07 17:06:00,70.2,50.1,29.90,SSE,160,4.0,16.0,49,0.00,,,0.00,Wunderground v.1.15,2013-04-07 21:06:00,
2013-04-07 17:12:00,70.2,50.1,29.90,South,188,3.0,16.0,49,0.00,,,0.00,Wunderground v.1.15,2013-04-07 21:12:00,
2013-04-07 17:17:00,70.2,50.1,29.90,SE,142,3.0,16.0,49,0.00,,,0.00,Wunderground v.1.15,2013-04-07 21:17:00,
2013-04-07 17:22:00,70.2,50.7,29.90,South,187,4.0,16.0,50,0.00,,,0.00,Wunderground v.1.15,2013-04-07 21:22:00,
2013-04-07 17:27:00,70.0,50.0,29.90,SE,145,3.0,16.0,49,0.00,,,0.00,Wunderground v.1.15,2013-04-07 21:27:00,
2013-04-07 17:33:00,69.8,50.3,29.90,NNW,338,4.0,16.0,50,0.00,,,0.00,Wunderground v.1.15,2013-04-07 21:33:00,
2013-04-07 17:39:00,69.6,50.1,29.90,SE,141,3.0,16.0,50,0.00,,,0.00,Wunderground v.1.15,2013-04-07 21:39:00,
2013-04-07 17:45:00,69.9,50.4,29.90,SSE,165,3.0,16.0,50,0.00,,,0.00,Wunderground v.1.15,2013-04-07 21:45:00,
2013-04-07 17:51:00,69.9,50.4,29.91,South,176,5.0,16.0,50,0.00,,,0.00,Wunderground v.1.15,2013-04-07 21:51:00,
2013-04-07 17:56:00,69.5,50.6,29.91,South,180,4.0,16.0,51,0.00,,,0.00,Wunderground v.1.15,2013-04-07 21:56:00,
2013-04-07 18:02:00,68.9,51.1,29.92,WNW,303,2.0,11.0,53,0.00,,,0.00,Wunderground v.1.15,2013-04-07 22:02:00,
2013-04-07 18:08:00,68.6,51.8,29.94,NNW,336,4.0,11.0,55,0.00,,,0.00,Wunderground v.1.15,2013-04-07 22:08:00,
2013-04-07 18:14:00,67.0,54.4,29.93,NW,321,6.0,11.0,64,0.00,,,0.01,Wunderground v.1.15,2013-04-07 22:14:00,
2013-04-07 18:19:00,64.6,54.6,29.92,NNW,336,5.0,11.0,70,0.00,,,0.01,Wunderground v.1.15,2013-04-07 22:19:00,
2013-04-07 18:24:00,62.6,55.3,29.92,NNW,336,2.0,11.0,77,0.00,,,0.01,Wunderground v.1.15,2013-04-07 22:24:00,
2013-04-07 18:29:00,61.8,55.2,29.92,NNW,336,1.0,11.0,79,0.00,,,0.01,Wunderground v.1.15,2013-04-07 22:29:00,
2013-04-07 18:35:00,60.7,55.8,29.93,NNW,336,0.0,11.0,84,0.00,,,0.01,Wunderground v.1.15,2013-04-07 22:35:00,
2013-04-07 18:41:00,59.7,55.5,29.93,NNW,336,1.0,11.0,86,0.00,,,0.01,Wunderground v.1.15,2013-04-07 22:41:00,
2013-04-07 18:46:00,59.1,55.5,29.93,NNW,336,1.0,11.0,88,0.00,,,0.01,Wunderground v.1.15,2013-04-07 22:46:00,
2013-04-07 18:52:00,59.0,55.8,29.93,NNW,336,0.0,11.0,89,0.00,,,0.01,Wunderground v.1.15,2013-04-07 22:52:00,
2013-04-07 18:58:00,59.0,54.2,29.93,NNW,336,0.0,11.0,84,0.00,,,0.01,Wunderground v.1.15,2013-04-07 22:58:00,
2013-04-07 19:03:00,59.9,53.7,29.93,NNW,336,0.0,15.0,80,0.00,,,0.01,Wunderground v.1.15,2013-04-07 23:03:00,
2013-04-07 19:08:00,60.1,54.2,29.94,NNW,336,0.0,15.0,81,0.00,,,0.01,Wunderground v.1.15,2013-04-07 23:08:00,
2013-04-07 19:13:00,60.0,53.5,29.94,NNW,336,2.0,15.0,79,0.00,,,0.01,Wunderground v.1.15,2013-04-07 23:13:00,
2013-04-07 19:19:00,60.8,52.5,29.94,SE,142,4.0,15.0,74,0.00,,,0.01,Wunderground v.1.15,2013-04-07 23:19:00,
2013-04-07 19:24:00,61.2,52.5,29.94,NW,304,4.0,15.0,73,0.00,,,0.01,Wunderground v.1.15,2013-04-07 23:24:00,
2013-04-07 19:29:00,61.3,52.2,29.94,South,172,3.0,15.0,72,0.00,,,0.01,Wunderground v.1.15,2013-04-07 23:29:00,
2013-04-07 19:34:00,61.4,52.3,29.94,SSE,150,1.0,15.0,72,0.00,,,0.01,Wunderground v.1.15,2013-04-07 23:34:00,
2013-04-07 19:39:00,61.4,52.3,29.95,SSE,155,1.0,15.0,72,0.00,,,0.01,Wunderground v.1.15,2013-04-07 23:39:00,
2013-04-07 19:45:00,61.4,52.7,29.94,East,96,3.0,15.0,73,0.00,,,0.01,Wunderground v.1.15,2013-04-07 23:45:00,
2013-04-07 19:50:00,61.3,52.6,29.94,SE,132,3.0,15.0,73,0.00,,,0.01,Wunderground v.1.15,2013-04-07 23:50:00,
2013-04-07 19:55:00,61.2,52.1,29.94,South,169,3.0,15.0,72,0.00,,,0.01,Wunderground v.1.15,2013-04-07 23:55:00,
2013-04-07 20:00:00,61.2,52.5,29.94,SSW,202,3.0,11.0,73,0.00,,,0.01,Wunderground v.1.15,2013-04-08 00:00:00,
2013-04-07 20:06:00,61.0,52.3,29.95,SSW,194,3.0,11.0,73,0.00,,,0.01,Wunderground v.1.15,2013-04-08 00:06:00,
2013-04-07 20:11:00,60.8,52.1,29.94,SSE,162,2.0,11.0,73,0.00,,,0.01,Wunderground v.1.15,2013-04-08 00:11:00,
2013-04-07 20:16:00,60.5,51.8,29.95,South,184,2.0,11.0,73,0.00,,,0.01,Wunderground v.1.15,2013-04-08 00:16:00,
2013-04-07 20:22:00,60.2,51.9,29.95,SSE,164,1.0,11.0,74,0.00,,,0.01,Wunderground v.1.15,2013-04-08 00:22:00,
2013-04-07 20:28:00,59.0,51.4,29.95,SSE,155,1.0,11.0,76,0.00,,,0.01,Wunderground v.1.15,2013-04-08 00:28:00,
2013-04-07 20:34:00,57.9,51.1,29.96,SSE,155,0.0,11.0,78,0.00,,,0.01,Wunderground v.1.15,2013-04-08 00:34:00,
2013-04-07 20:40:00,56.8,50.7,29.96,SSE,155,0.0,11.0,80,0.00,,,0.01,Wunderground v.1.15,2013-04-08 00:40:00,
2013-04-07 20:45:00,56.2,50.4,29.96,SSE,155,0.0,11.0,81,0.00,,,0.01,Wunderground v.1.15,2013-04-08 00:45:00,
2013-04-07 20:50:00,55.8,50.7,29.97,SE,130,0.0,11.0,83,0.00,,,0.01,Wunderground v.1.15,2013-04-08 00:50:00,
2013-04-07 20:56:00,56.3,51.2,29.97,SSE,159,1.0,11.0,83,0.00,,,0.01,Wunderground v.1.15,2013-04-08 00:56:00,
2013-04-07 21:01:00,57.0,51.6,29.97,South,173,2.0,8.0,82,0.00,,,0.01,Wunderground v.1.15,2013-04-08 01:01:00,
2013-04-07 21:07:00,57.8,52.0,29.97,SE,138,2.0,8.0,81,0.00,,,0.01,Wunderground v.1.15,2013-04-08 01:07:00,
2013-04-07 21:13:00,58.4,52.3,29.97,SSE,167,2.0,8.0,80,0.00,,,0.01,Wunderground v.1.15,2013-04-08 01:13:00,
2013-04-07 21:18:00,58.8,52.3,29.97,SSE,150,3.0,8.0,79,0.00,,,0.01,Wunderground v.1.15,2013-04-08 01:18:00,
2013-04-07 21:23:00,59.0,52.1,29.97,ESE,122,2.0,8.0,78,0.00,,,0.01,Wunderground v.1.15,2013-04-08 01:23:00,
2013-04-07 21:28:00,58.3,51.8,29.97,ESE,122,1.0,8.0,79,0.00,,,0.01,Wunderground v.1.15,2013-04-08 01:28:00,
2013-04-07 21:33:00,57.5,51.0,29.97,ESE,122,0.0,8.0,79,0.00,,,0.01,Wunderground v.1.15,2013-04-08 01:33:00,
2013-04-07 21:38:00,56.7,50.6,29.98,ESE,122,0.0,8.0,80,0.00,,,0.01,Wunderground v.1.15,2013-04-08 01:38:00,
2013-04-07 21:44:00,55.6,50.2,29.98,ESE,122,0.0,8.0,82,0.00,,,0.01,Wunderground v.1.15,2013-04-08 01:44:00,
2013-04-07 21:49:00,55.1,50.0,29.98,ESE,122,0.0,8.0,83,0.00,,,0.01,Wunderground v.1.15,2013-04-08 01:49:00,
2013-04-07 21:55:00,54.8,50.1,29.98,ESE,122,0.0,8.0,84,0.00,,,0.01,Wunderground v.1.15,2013-04-08 01:55:00,
2013-04-07 22:00:00,54.5,50.1,29.98,SSE,153,0.0,7.0,85,0.00,,,0.01,Wunderground v.1.15,2013-04-08 02:00:00,
2013-04-07 22:06:00,54.5,50.1,29.98,SSE,163,1.0,7.0,85,0.00,,,0.01,Wunderground v.1.15,2013-04-08 02:06:00,
2013-04-07 22:11:00,54.3,49.9,29.98,SSE,163,0.0,7.0,85,0.00,,,0.01,Wunderground v.1.15,2013-04-08 02:11:00,
2013-04-07 22:17:00,54.0,49.9,29.98,SSE,163,0.0,7.0,86,0.00,,,0.01,Wunderground v.1.15,2013-04-08 02:17:00,
2013-04-07 22:23:00,53.7,49.9,29.98,SSE,163,0.0,7.0,87,0.00,,,0.01,Wunderground v.1.15,2013-04-08 02:23:00,
2013-04-07 22:28:00,53.4,49.6,29.98,SSE,163,0.0,7.0,87,0.00,,,0.01,Wunderground v.1.15,2013-04-08 02:28:00,
2013-04-07 22:34:00,52.9,49.1,29.98,SSE,163,0.0,7.0,87,0.00,,,0.01,Wunderground v.1.15,2013-04-08 02:34:00,
2013-04-07 22:40:00,52.4,48.9,29.98,SSE,163,0.0,7.0,88,0.00,,,0.01,Wunderground v.1.15,2013-04-08 02:40:00,
2013-04-07 22:45:00,51.9,48.5,29.98,SSE,163,0.0,7.0,88,0.00,,,0.01,Wunderground v.1.15,2013-04-08 02:45:00,
2013-04-07 22:51:00,51.5,48.4,29.98,SSE,163,0.0,7.0,89,0.00,,,0.01,Wunderground v.1.15,2013-04-08 02:51:00,
2013-04-07 22:56:00,51.2,48.1,29.98,SSE,163,0.0,7.0,89,0.00,,,0.01,Wunderground v.1.15,2013-04-08 02:56:00,
2013-04-07 23:02:00,50.9,48.1,29.98,SSE,163,0.0,2.0,90,0.00,,,0.01,Wunderground v.1.15,2013-04-08 03:02:00,
2013-04-07 23:07:00,50.7,47.9,29.98,SSE,163,0.0,2.0,90,0.00,,,0.01,Wunderground v.1.15,2013-04-08 03:07:00,
2013-04-07 23:13:00,50.4,47.6,29.98,SSE,163,0.0,2.0,90,0.00,,,0.01,Wunderground v.1.15,2013-04-08 03:13:00,
2013-04-07 23:18:00,50.1,47.6,29.97,SSE,163,0.0,2.0,91,0.00,,,0.01,Wunderground v.1.15,2013-04-08 03:18:00,
2013-04-07 23:24:00,49.8,47.3,29.97,SSE,163,0.0,2.0,91,0.00,,,0.01,Wunderground v.1.15,2013-04-08 03:24:00,
2013-04-07 23:29:00,49.4,46.9,29.97,SSE,163,0.0,2.0,91,0.00,,,0.01,Wunderground v.1.15,2013-04-08 03:29:00,
2013-04-07 23:34:00,48.9,46.4,29.97,SSE,163,0.0,2.0,91,0.00,,,0.01,Wunderground v.1.15,2013-04-08 03:34:00,
2013-04-07 23:39:00,48.6,46.4,29.97,SSE,163,0.0,2.0,92,0.00,,,0.01,Wunderground v.1.15,2013-04-08 03:39:00,
2013-04-07 23:45:00,48.5,46.3,29.98,SSE,163,0.0,2.0,92,0.00,,,0.01,Wunderground v.1.15,2013-04-08 03:45:00,
2013-04-07 23:50:00,48.3,46.1,29.98,SSE,163,0.0,2.0,92,0.00,,,0.01,Wunderground v.1.15,2013-04-08 03:50:00,
2013-04-07 23:56:00,48.2,46.0,29.99,SSE,163,0.0,2.0,92,0.00,,,0.01,Wunderground v.1.15,2013-04-08 03:56:00,